Time;durP1;ratioP1;P1;durP2;ratioP2;P2;SDS_P1;SDS_P2;PMS_P1;PMS_P2;Temp;Humidity;BMP_temperature;BMP_pressure;BME280_temperature;BME280_humidity;BME280_pressure;Samples;Min_cycle;Max_cycle;Signal;HPM_P1;HPM_P2
2023/03/19 00:01:15;;;;;;;3.67;2.70;;;;;;;9.23;100.00;100877.44;6214235;23;20004;-86
2023/03/19 00:03:41;;;;;;;3.28;2.95;;;;;;;9.22;100.00;100875.72;6211790;23;20209;-87
2023/03/19 00:06:07;;;;;;;3.05;2.78;;;;;;;9.20;100.00;100887.38;6212951;23;20013;-87
2023/03/19 00:08:32;;;;;;;3.10;2.80;;;;;;;9.21;100.00;100889.09;6211090;23;20275;-87
2023/03/19 00:10:57;;;;;;;3.55;2.80;;;;;;;9.17;100.00;100879.53;6184495;23;20004;-86
2023/03/19 00:13:22;;;;;;;3.22;2.97;;;;;;;9.19;100.00;100883.81;6211012;23;20391;-86
2023/03/19 00:15:48;;;;;;;6.07;3.58;;;;;;;9.16;100.00;100883.13;6208976;23;20439;-87
2023/03/19 00:18:13;;;;;;;3.20;2.90;;;;;;;9.17;100.00;100883.03;6208801;23;20100;-86
2023/03/19 00:20:39;;;;;;;3.88;3.40;;;;;;;9.13;100.00;100876.16;6218026;23;20015;-87
2023/03/19 00:23:05;;;;;;;3.47;3.17;;;;;;;9.19;100.00;100888.28;6236907;23;20000;-86
2023/03/19 00:25:30;;;;;;;3.70;3.40;;;;;;;9.20;100.00;100880.25;6236363;23;20000;-86
2023/03/19 00:27:56;;;;;;;4.53;3.30;;;;;;;9.13;100.00;100875.28;6236831;23;20175;-84
2023/03/19 00:30:22;;;;;;;3.45;3.10;;;;;;;9.15;100.00;100886.69;6236433;23;20013;-85
2023/03/19 00:32:48;;;;;;;3.63;3.15;;;;;;;9.14;100.00;100891.16;6235272;23;20293;-85
2023/03/19 00:35:13;;;;;;;3.90;3.45;;;;;;;9.16;100.00;100883.13;6229037;23;20013;-84
2023/03/19 00:37:39;;;;;;;4.05;3.50;;;;;;;9.13;100.00;100891.22;6222567;23;19996;-86
2023/03/19 00:40:05;;;;;;;4.43;3.50;;;;;;;9.13;100.00;100886.78;6218311;23;20024;-85
2023/03/19 00:42:31;;;;;;;4.75;3.80;;;;;;;9.13;100.00;100891.22;6210664;23;20005;-87
2023/03/19 00:44:56;;;;;;;5.38;3.58;;;;;;;9.15;100.00;100892.84;6213879;23;20199;-86
2023/03/19 00:47:23;;;;;;;4.35;3.95;;;;;;;9.12;100.00;100902.78;6211958;23;20004;-87
2023/03/19 00:49:48;;;;;;;5.07;3.30;;;;;;;9.09;100.00;100889.63;6210757;23;20327;-86
2023/03/19 00:52:14;;;;;;;4.15;3.45;;;;;;;9.12;100.00;100897.47;6211017;23;20374;-85
2023/03/19 00:54:40;;;;;;;3.75;3.35;;;;;;;9.13;100.00;100891.22;6208954;23;20001;-86
2023/03/19 00:57:05;;;;;;;4.10;3.42;;;;;;;9.12;100.00;100889.50;6208846;23;20011;-86
2023/03/19 00:59:31;;;;;;;3.80;3.45;;;;;;;9.06;100.00;100884.44;6207265;23;20005;-86
2023/03/19 01:01:56;;;;;;;3.65;3.33;;;;;;;9.07;100.00;100883.50;6206783;23;20038;-87
2023/03/19 01:04:22;;;;;;;3.78;3.38;;;;;;;9.11;100.00;100896.63;6209246;23;20009;-87
2023/03/19 01:06:47;;;;;;;4.65;3.30;;;;;;;9.10;100.00;100896.66;6209141;23;20454;-86
2023/03/19 01:09:13;;;;;;;3.95;3.55;;;;;;;9.06;100.00;100895.06;6209290;23;20016;-86
2023/03/19 01:11:39;;;;;;;4.20;3.80;;;;;;;9.03;100.00;100889.88;6208357;23;20050;-86
2023/03/19 01:14:05;;;;;;;5.75;4.30;;;;;;;8.95;100.00;100884.94;6182013;23;20031;-86
2023/03/19 01:16:30;;;;;;;4.57;4.20;;;;;;;8.96;100.00;100890.16;6207057;23;20017;-86
2023/03/19 01:18:58;;;;;;;5.93;4.90;;;;;;;8.93;100.00;100890.28;6208024;23;20015;-86
2023/03/19 01:21:23;;;;;;;6.72;5.03;;;;;;;8.89;100.00;100888.69;6208109;23;20059;-86
2023/03/19 01:23:50;;;;;;;5.30;4.80;;;;;;;8.91;100.00;100889.50;6208623;23;20013;-86
2023/03/19 01:26:16;;;;;;;6.70;5.53;;;;;;;8.91;100.00;100888.66;6208388;23;20039;-86
2023/03/19 01:28:42;;;;;;;6.53;5.90;;;;;;;8.89;100.00;100888.69;6207239;23;20083;-87
2023/03/19 01:31:08;;;;;;;7.53;5.80;;;;;;;8.95;100.00;100890.25;6209289;23;20086;-87
2023/03/19 01:33:33;;;;;;;10.05;6.43;;;;;;;8.92;100.00;100891.22;6208171;23;20008;-87
2023/03/19 01:36:02;;;;;;;6.95;6.25;;;;;;;8.94;100.00;100894.66;6207351;23;20015;-87
2023/03/19 01:38:28;;;;;;;6.70;6.00;;;;;;;8.90;100.00;100890.44;6206809;23;20004;-87
2023/03/19 01:40:54;;;;;;;7.25;6.20;;;;;;;8.90;100.00;100889.56;6208469;23;20043;-85
2023/03/19 01:43:27;;;;;;;5.80;5.25;;;;;;;8.87;100.00;100890.56;6208940;23;20431;-87
2023/03/19 01:46:00;;;;;;;6.57;5.47;;;;;;;8.79;100.00;100879.41;6207250;23;20334;-87
2023/03/19 01:48:40;;;;;;;6.88;6.28;;;;;;;8.73;100.00;100883.16;6208070;23;20028;-87
2023/03/19 01:51:09;;;;;;;7.22;6.57;;;;;;;8.73;100.00;100884.97;6209570;23;20329;-85
2023/03/19 01:53:38;;;;;;;7.97;7.28;;;;;;;8.71;100.00;100878.88;6209122;23;20008;-86
2023/03/19 01:56:10;;;;;;;8.35;7.30;;;;;;;8.74;100.00;100886.72;6208729;23;20097;-85
2023/03/19 01:58:37;;;;;;;9.43;7.32;;;;;;;8.78;100.00;100887.41;6206623;23;20009;-86
2023/03/19 02:01:03;;;;;;;8.38;7.57;;;;;;;8.83;100.00;100888.97;6208620;23;20001;-86
2023/03/19 02:03:29;;;;;;;8.30;7.50;;;;;;;8.88;100.00;100889.63;6207898;23;20464;-86
2023/03/19 02:05:55;;;;;;;7.30;6.55;;;;;;;8.92;100.00;100893.03;6208864;23;20004;-86
2023/03/19 02:08:22;;;;;;;7.15;6.35;;;;;;;8.92;100.00;100877.94;6211012;23;20075;-87
2023/03/19 02:10:50;;;;;;;7.32;5.80;;;;;;;8.96;100.00;100889.31;6208505;23;20722;-86
2023/03/19 02:13:15;;;;;;;7.22;6.15;;;;;;;8.96;100.00;100886.66;6209464;23;20019;-86
2023/03/19 02:15:41;;;;;;;6.30;5.70;;;;;;;8.98;100.00;100879.47;6208925;23;20013;-87
2023/03/19 02:18:07;;;;;;;6.18;5.57;;;;;;;9.04;100.00;100891.63;6209213;23;20019;-86
2023/03/19 02:20:42;;;;;;;6.03;5.43;;;;;;;9.05;100.00;100888.03;6232631;23;20004;-85
2023/03/19 02:23:10;;;;;;;6.28;5.50;;;;;;;9.06;100.00;100887.09;6233374;23;20018;-86
2023/03/19 02:25:45;;;;;;;5.70;5.20;;;;;;;9.06;100.00;100881.78;6230659;23;19996;-86
2023/03/19 02:28:13;;;;;;;5.93;5.28;;;;;;;9.08;100.00;100887.91;6215677;23;20054;-86
2023/03/19 02:30:38;;;;;;;5.90;5.28;;;;;;;9.07;100.00;100887.06;6210301;23;20001;-87
2023/03/19 02:33:04;;;;;;;5.88;5.28;;;;;;;9.06;100.00;100887.09;6213030;23;20012;-87
2023/03/19 02:35:33;;;;;;;6.95;5.80;;;;;;;9.06;100.00;100890.63;6210277;23;20008;-86
2023/03/19 02:38:00;;;;;;;7.43;6.15;;;;;;;9.07;100.00;100891.47;6208966;23;20024;-86
2023/03/19 02:40:30;;;;;;;6.75;6.07;;;;;;;9.08;100.00;100888.78;6211106;23;20043;-87
2023/03/19 02:42:55;;;;;;;6.60;6.00;;;;;;;9.05;100.00;100874.75;6211796;23;20034;-87
2023/03/19 02:45:22;;;;;;;7.30;6.15;;;;;;;9.05;100.00;100886.25;6211522;23;20474;-86
2023/03/19 02:47:47;;;;;;;7.20;5.97;;;;;;;9.01;100.00;100895.28;6208809;23;20106;-87
2023/03/19 02:50:13;;;;;;;7.03;6.35;;;;;;;9.00;100.00;100893.56;6213499;23;20110;-86
2023/03/19 02:52:39;;;;;;;7.22;6.40;;;;;;;9.00;100.00;100901.50;6236890;23;20028;-87
2023/03/19 02:55:05;;;;;;;7.25;6.47;;;;;;;9.01;100.00;100902.38;6237435;23;20027;-86
2023/03/19 02:57:30;;;;;;;7.50;6.80;;;;;;;9.01;100.00;100897.06;6210646;23;19992;-87
2023/03/19 02:59:55;;;;;;;7.00;6.30;;;;;;;9.01;100.00;100900.59;6233906;23;20013;-86
2023/03/19 03:02:21;;;;;;;6.35;5.72;;;;;;;9.03;100.00;100909.34;6233556;23;20025;-86
2023/03/19 03:04:46;;;;;;;7.55;6.75;;;;;;;9.04;100.00;100907.56;6233106;23;20020;-86
2023/03/19 03:07:11;;;;;;;7.25;6.53;;;;;;;9.06;100.00;100900.38;6190277;23;20091;-86
2023/03/19 03:09:37;;;;;;;7.53;6.63;;;;;;;9.05;100.00;100899.50;6210733;23;20004;-86
2023/03/19 03:12:02;;;;;;;7.00;6.25;;;;;;;9.02;100.00;100896.13;6211477;23;20473;-87
2023/03/19 03:14:28;;;;;;;7.70;7.00;;;;;;;9.06;100.00;100908.34;6211778;23;20038;-87
2023/03/19 03:16:53;;;;;;;7.25;6.53;;;;;;;9.04;100.00;100899.59;6210120;23;20087;-86
2023/03/19 03:19:20;;;;;;;7.63;6.85;;;;;;;9.06;100.00;100903.88;6210665;23;20062;-87
2023/03/19 03:21:45;;;;;;;7.70;6.90;;;;;;;9.03;100.00;100900.50;6210235;23;20122;-86
2023/03/19 03:24:11;;;;;;;7.68;6.88;;;;;;;9.04;100.00;100905.75;6209735;23;20008;-86
2023/03/19 03:26:37;;;;;;;8.05;7.25;;;;;;;9.03;100.00;100897.84;6208356;23;20032;-86
2023/03/19 03:29:04;;;;;;;8.48;7.28;;;;;;;9.04;100.00;100907.56;6208964;23;20040;-87
2023/03/19 03:31:29;;;;;;;8.88;7.50;;;;;;;9.03;100.00;100905.81;6207950;23;20099;-86
2023/03/19 03:33:55;;;;;;;8.48;7.35;;;;;;;9.05;100.00;100906.63;6208940;23;20330;-86
2023/03/19 03:36:20;;;;;;;8.10;7.25;;;;;;;9.08;100.00;100914.47;6208071;23;20013;-87
2023/03/19 03:38:45;;;;;;;8.68;7.88;;;;;;;9.07;100.00;100912.72;6181343;23;20440;-87
2023/03/19 03:41:11;;;;;;;8.50;7.32;;;;;;;9.06;100.00;100908.34;6208017;23;20066;-86
2023/03/19 03:43:36;;;;;;;8.15;7.38;;;;;;;9.05;100.00;100909.28;6207148;23;20075;-87
2023/03/19 03:46:02;;;;;;;8.05;7.22;;;;;;;9.02;100.00;100915.56;6179957;23;20068;-87
2023/03/19 03:48:27;;;;;;;8.48;7.60;;;;;;;8.97;100.00;100912.25;6223224;23;20047;-87
2023/03/19 03:50:53;;;;;;;8.68;7.68;;;;;;;8.90;100.00;100910.78;6205473;23;20008;-84
2023/03/19 03:53:18;;;;;;;8.50;7.70;;;;;;;8.92;100.00;100922.22;6232987;23;19988;-86
2023/03/19 03:55:43;;;;;;;8.30;7.50;;;;;;;8.90;100.00;100924.94;6231313;23;20087;-84
2023/03/19 03:58:09;;;;;;;8.63;7.72;;;;;;;8.94;100.00;100921.22;6234022;23;20031;-85
2023/03/19 04:00:35;;;;;;;8.45;7.75;;;;;;;8.95;100.00;100930.06;6234457;23;19997;-85
2023/03/19 04:03:01;;;;;;;8.00;7.25;;;;;;;8.99;100.00;100929.00;6218803;23;20378;-86
2023/03/19 04:05:27;;;;;;;8.18;7.38;;;;;;;8.97;100.00;100929.03;6214813;23;20008;-86
2023/03/19 04:07:52;;;;;;;8.23;7.43;;;;;;;9.04;100.00;100934.09;6216315;23;20009;-86
2023/03/19 04:10:18;;;;;;;9.80;8.35;;;;;;;9.03;100.00;100933.25;6215561;23;20031;-87
2023/03/19 04:12:44;;;;;;;8.55;7.68;;;;;;;9.01;100.00;100924.47;6190438;23;20008;-87
2023/03/19 04:15:11;;;;;;;9.77;7.82;;;;;;;9.03;100.00;100933.25;6215328;23;20569;-87
2023/03/19 04:17:37;;;;;;;9.43;8.52;;;;;;;8.93;100.00;100923.94;6182153;23;20035;-86
2023/03/19 04:20:04;;;;;;;9.02;8.13;;;;;;;8.90;100.00;100934.69;6209782;23;20075;-88
2023/03/19 04:22:30;;;;;;;9.82;8.68;;;;;;;8.80;100.00;100926.25;6209828;23;20004;-87
2023/03/19 04:24:56;;;;;;;11.55;8.85;;;;;;;8.74;100.00;100929.19;6210798;23;20022;-86
2023/03/19 04:27:21;;;;;;;10.07;9.02;;;;;;;8.65;100.00;100925.13;6210635;23;20028;-87
2023/03/19 04:29:46;;;;;;;11.27;9.88;;;;;;;8.63;100.00;100929.59;6184140;23;20490;-86
2023/03/19 04:32:12;;;;;;;11.23;10.00;;;;;;;8.57;100.00;100932.53;6184621;23;20016;-87
2023/03/19 04:34:37;;;;;;;11.30;10.20;;;;;;;8.56;100.00;100932.56;6210142;23;20008;-87
2023/03/19 04:37:03;;;;;;;11.07;10.10;;;;;;;8.51;100.00;100931.91;6211836;23;20005;-88
2023/03/19 04:39:28;;;;;;;11.85;10.70;;;;;;;8.41;100.00;100934.06;6211863;23;20069;-87
2023/03/19 04:41:54;;;;;;;11.80;10.73;;;;;;;8.34;100.00;100941.38;6212111;23;20009;-86
2023/03/19 04:44:20;;;;;;;11.52;10.43;;;;;;;8.24;100.00;100938.22;6212222;23;20075;-87
2023/03/19 04:46:46;;;;;;;11.63;10.57;;;;;;;8.17;100.00;100930.56;6210101;23;20039;-87
2023/03/19 04:49:12;;;;;;;12.40;11.02;;;;;;;8.12;100.00;100935.19;6212478;23;20008;-87
2023/03/19 04:51:37;;;;;;;11.90;10.70;;;;;;;8.10;100.00;100942.34;6211340;23;20437;-87
2023/03/19 04:54:04;;;;;;;12.10;10.90;;;;;;;8.05;100.00;100936.34;6184379;23;19997;-87
2023/03/19 04:56:29;;;;;;;11.35;9.93;;;;;;;8.05;100.00;100942.50;6210635;23;20103;-88
2023/03/19 04:58:55;;;;;;;11.32;10.23;;;;;;;8.10;100.00;100951.16;6214226;23;20012;-85
2023/03/19 05:01:21;;;;;;;13.18;11.85;;;;;;;8.07;100.00;100946.00;6220972;23;20093;-86
2023/03/19 05:03:46;;;;;;;12.68;11.35;;;;;;;8.13;100.00;100959.00;6228505;23;20036;-86
2023/03/19 05:06:11;;;;;;;11.85;10.75;;;;;;;8.15;100.00;100958.91;6234549;23;20004;-87
2023/03/19 05:08:37;;;;;;;12.88;11.57;;;;;;;8.18;100.00;100958.81;6233012;23;20004;-84
2023/03/19 05:11:03;;;;;;;13.85;11.30;;;;;;;8.16;100.00;100955.38;6217859;23;20079;-85
2023/03/19 05:13:28;;;;;;;12.55;11.27;;;;;;;8.14;100.00;100957.19;6214578;23;20210;-86
2023/03/19 05:15:54;;;;;;;12.60;11.15;;;;;;;8.20;100.00;100957.84;6213053;23;20007;-87
2023/03/19 05:18:20;;;;;;;13.50;11.88;;;;;;;8.21;100.00;100954.25;6212583;23;20004;-86
2023/03/19 05:20:45;;;;;;;12.82;11.38;;;;;;;8.16;100.00;100955.38;6232740;22;20000;-86
2023/03/19 05:23:11;;;;;;;12.13;10.82;;;;;;;8.11;100.00;100954.66;6240194;22;20015;-88
2023/03/19 05:25:36;;;;;;;12.70;11.40;;;;;;;8.10;100.00;100958.25;6239238;22;19993;-86
2023/03/19 05:28:03;;;;;;;13.95;12.50;;;;;;;8.11;100.00;100967.91;6237658;22;20003;-85
2023/03/19 05:30:30;;;;;;;12.93;11.60;;;;;;;8.08;100.00;100962.75;6234216;23;19997;-86
2023/03/19 05:32:57;;;;;;;14.73;12.65;;;;;;;8.14;100.00;100963.38;6234316;23;20060;-87
2023/03/19 05:35:23;;;;;;;13.73;12.35;;;;;;;8.13;100.00;100958.13;6221344;23;20004;-87
2023/03/19 05:37:49;;;;;;;14.07;12.57;;;;;;;8.17;100.00;100957.09;6212023;23;20012;-87
2023/03/19 05:40:15;;;;;;;13.85;12.48;;;;;;;8.19;100.00;100961.41;6213199;23;20079;-86
2023/03/19 05:42:41;;;;;;;14.60;12.85;;;;;;;8.21;100.00;100969.31;6213559;23;20012;-87
2023/03/19 05:45:06;;;;;;;14.02;12.57;;;;;;;8.25;100.00;100976.22;6214162;23;20004;-87
2023/03/19 05:47:33;;;;;;;14.35;12.88;;;;;;;8.28;100.00;100975.22;6214320;23;20039;-87
2023/03/19 05:49:58;;;;;;;18.17;14.32;;;;;;;8.27;100.00;100970.84;6211599;23;20011;-87
2023/03/19 05:52:23;;;;;;;15.95;13.85;;;;;;;8.32;100.00;100980.38;6211198;23;20733;-87
2023/03/19 05:54:49;;;;;;;16.35;14.65;;;;;;;8.36;100.00;100983.72;6210623;23;20012;-86
2023/03/19 05:57:15;;;;;;;15.98;14.25;;;;;;;8.35;100.00;100988.19;6209722;23;20008;-87
2023/03/19 05:59:41;;;;;;;16.30;14.63;;;;;;;8.39;100.00;101000.44;6209666;23;20016;-87
2023/03/19 06:02:06;;;;;;;16.70;15.10;;;;;;;8.39;100.00;100994.25;6208776;23;20017;-88
2023/03/19 06:04:32;;;;;;;16.20;14.50;;;;;;;8.37;100.00;100986.38;6209137;23;20078;-86
2023/03/19 06:06:57;;;;;;;15.50;13.90;;;;;;;8.40;100.00;100991.56;6209762;23;20012;-86
2023/03/19 06:09:23;;;;;;;14.13;12.82;;;;;;;8.41;100.00;100998.59;6210410;23;20083;-87
2023/03/19 06:11:48;;;;;;;14.60;13.13;;;;;;;8.42;100.00;101000.31;6209354;23;20005;-87
2023/03/19 06:14:13;;;;;;;14.73;13.10;;;;;;;8.38;100.00;101001.34;6210108;23;20415;-86
2023/03/19 06:16:39;;;;;;;16.20;14.43;;;;;;;8.35;100.00;101005.88;6207892;23;20007;-86
2023/03/19 06:19:04;;;;;;;16.38;14.68;;;;;;;8.26;100.00;101008.91;6207789;23;20021;-87
2023/03/19 06:21:30;;;;;;;19.10;17.10;;;;;;;8.21;100.00;101004.63;6209407;23;20004;-87
2023/03/19 06:23:55;;;;;;;20.52;17.90;;;;;;;8.18;100.00;101011.84;6210634;23;20008;-87
2023/03/19 06:26:21;;;;;;;18.65;16.50;;;;;;;8.17;100.00;101007.47;6207696;23;20011;-86
2023/03/19 06:28:47;;;;;;;19.48;17.33;;;;;;;8.16;100.00;101017.22;6209535;23;20004;-87
2023/03/19 06:31:12;;;;;;;19.33;17.33;;;;;;;8.15;100.00;101022.56;6209233;23;20015;-86
2023/03/19 06:33:38;;;;;;;21.95;18.00;;;;;;;8.13;100.00;101019.09;6207928;23;20083;-87
2023/03/19 06:36:03;;;;;;;21.08;17.70;;;;;;;8.15;100.00;101012.84;6206620;23;20083;-87
2023/03/19 06:38:29;;;;;;;19.50;17.52;;;;;;;8.14;100.00;101023.47;6208710;23;20008;-87
2023/03/19 06:40:54;;;;;;;19.83;17.58;;;;;;;8.11;100.00;101024.47;6209010;23;20005;-87
2023/03/19 06:43:19;;;;;;;20.25;18.15;;;;;;;8.09;100.00;101028.09;6208599;23;20117;-87
2023/03/19 06:45:45;;;;;;;20.92;18.73;;;;;;;8.08;100.00;101027.25;6206867;23;20434;-86
2023/03/19 06:48:11;;;;;;;20.65;18.55;;;;;;;8.03;100.00;101023.91;6209037;23;20450;-86
2023/03/19 06:50:36;;;;;;;20.35;18.25;;;;;;;8.08;100.00;101037.84;6207383;23;20004;-86
2023/03/19 06:53:01;;;;;;;22.20;18.40;;;;;;;8.06;100.00;101034.38;6206662;23;20120;-87
2023/03/19 06:55:28;;;;;;;20.60;18.25;;;;;;;8.07;100.00;101040.53;6207633;23;20342;-86
2023/03/19 06:57:53;;;;;;;21.88;18.45;;;;;;;8.16;100.00;101040.22;6208757;23;20008;-87
2023/03/19 07:00:20;;;;;;;20.73;18.15;;;;;;;8.31;100.00;101036.09;6207833;23;20024;-86
2023/03/19 07:02:45;;;;;;;19.50;17.58;;;;;;;8.45;100.00;101042.66;6207804;23;20596;-87
2023/03/19 07:05:10;;;;;;;20.83;18.63;;;;;;;8.72;100.00;101042.47;6210230;23;20008;-87
2023/03/19 07:07:36;;;;;;;19.20;17.30;;;;;;;9.02;100.00;101032.38;6212554;23;20037;-86
2023/03/19 07:10:01;;;;;;;18.38;16.55;;;;;;;9.23;100.00;101035.94;6211726;23;20488;-87
2023/03/19 07:12:27;;;;;;;19.00;16.38;;;;;;;9.50;100.00;101051.66;6208725;23;20012;-89
2023/03/19 07:14:54;;;;;;;15.68;14.18;;;;;;;9.50;100.00;101041.03;6207711;23;20494;-87
2023/03/19 07:17:20;;;;;;;16.30;14.70;;;;;;;9.57;100.00;101055.75;6208072;23;20083;-87
2023/03/19 07:19:45;;;;;;;15.60;14.10;;;;;;;9.75;100.00;101057.63;6208142;23;20411;-87
2023/03/19 07:22:11;;;;;;;16.90;15.10;;;;;;;9.66;100.00;101056.25;6208929;23;20004;-87
2023/03/19 07:24:36;;;;;;;15.85;14.05;;;;;;;9.52;100.00;101058.59;6207028;23;20005;-87
2023/03/19 07:27:02;;;;;;;15.98;14.38;;;;;;;9.37;100.00;101060.16;6206737;23;20015;-86
2023/03/19 07:29:30;;;;;;;16.25;14.55;;;;;;;9.29;100.00;101059.59;6206509;23;20080;-87
2023/03/19 07:31:55;;;;;;;17.40;15.25;;;;;;;9.16;100.00;101053.09;6179564;23;20063;-87
2023/03/19 07:34:20;;;;;;;18.02;16.05;;;;;;;9.25;100.00;101070.44;6179483;23;20008;-86
2023/03/19 07:36:46;;;;;;;18.10;16.20;;;;;;;9.30;100.00;101077.25;6208386;23;20009;-86
2023/03/19 07:39:11;;;;;;;16.73;14.93;;;;;;;9.34;100.00;101067.38;6215628;23;20016;-87
2023/03/19 07:41:37;;;;;;;18.65;16.75;;;;;;;9.48;100.00;101078.28;6225228;23;20872;-84
2023/03/19 07:44:02;;;;;;;17.33;15.50;;;;;;;9.53;100.00;101086.03;6222095;23;20008;-85
2023/03/19 07:46:27;;;;;;;18.38;16.58;;;;;;;9.55;100.00;101085.06;6232240;23;20013;-86
2023/03/19 07:48:53;;;;;;;18.15;16.25;;;;;;;9.65;100.00;101088.19;6234641;23;20028;-87
2023/03/19 07:51:18;;;;;;;17.73;15.88;;;;;;;9.76;100.00;101082.41;6209121;23;20041;-85
2023/03/19 07:53:43;;;;;;;17.20;15.45;;;;;;;9.95;100.00;101080.69;6229225;23;20020;-86
2023/03/19 07:56:10;;;;;;;17.30;15.50;;;;;;;10.41;100.00;101087.47;6231588;23;20029;-87
2023/03/19 07:58:35;;;;;;;16.42;14.70;;;;;;;11.16;100.00;101080.31;6224139;23;20000;-86
2023/03/19 08:01:00;;;;;;;15.63;14.02;;;;;;;11.98;100.00;101085.06;6211716;23;20513;-86
2023/03/19 08:03:26;;;;;;;14.48;13.02;;;;;;;12.83;100.00;101082.19;6220375;23;20080;-86
2023/03/19 08:05:52;;;;;;;13.50;12.15;;;;;;;13.50;100.00;101066.75;6227687;23;20011;-83
2023/03/19 08:08:18;;;;;;;12.27;11.07;;;;;;;13.84;94.71;101077.16;6225706;23;20308;-85
2023/03/19 08:10:43;;;;;;;11.45;10.27;;;;;;;14.47;89.72;101083.13;6224678;23;20004;-85
2023/03/19 08:13:09;;;;;;;11.70;10.32;;;;;;;14.61;85.89;101078.63;6220881;23;20092;-85
2023/03/19 08:15:36;;;;;;;11.13;9.07;;;;;;;15.06;84.10;101081.97;6217209;23;20369;-84
2023/03/19 08:18:03;;;;;;;9.57;8.00;;;;;;;15.26;80.49;101086.00;6207438;23;20445;-86
2023/03/19 08:20:30;;;;;;;10.02;7.82;;;;;;;15.60;78.17;101086.44;6210909;23;20382;-87
2023/03/19 08:22:56;;;;;;;12.32;8.10;;;;;;;15.79;75.51;101084.22;6210310;23;20004;-87
2023/03/19 08:25:22;;;;;;;8.52;6.53;;;;;;;16.18;74.32;101090.47;6209985;23;20467;-88
2023/03/19 08:27:48;;;;;;;10.82;6.30;;;;;;;16.34;71.93;101101.84;6210113;23;20012;-87
2023/03/19 08:30:13;;;;;;;9.38;6.60;;;;;;;16.40;71.26;101100.56;6211092;23;20087;-87
2023/03/19 08:32:38;;;;;;;9.70;5.68;;;;;;;15.91;69.63;101095.94;6205458;23;20080;-86
2023/03/19 08:35:06;;;;;;;10.68;5.72;;;;;;;15.89;70.76;101112.16;6205180;23;20423;-86
2023/03/19 08:37:31;;;;;;;9.93;5.35;;;;;;;15.52;72.21;101108.41;6176597;23;20075;-86
2023/03/19 08:39:56;;;;;;;13.18;5.70;;;;;;;14.85;73.87;101110.16;6179353;23;20004;-87
2023/03/19 08:42:22;;;;;;;12.90;5.30;;;;;;;15.10;74.86;101112.97;6205243;23;20538;-88
2023/03/19 08:44:48;;;;;;;10.98;4.80;;;;;;;16.06;71.66;101108.31;6203194;23;20036;-87
2023/03/19 08:47:13;;;;;;;9.77;4.88;;;;;;;17.07;66.50;101114.50;6204499;23;20012;-86
2023/03/19 08:49:39;;;;;;;9.02;4.70;;;;;;;16.83;65.32;101116.31;6203485;23;20012;-87
2023/03/19 08:52:05;;;;;;;13.05;5.65;;;;;;;16.96;64.85;101127.03;6204830;23;20001;-86
2023/03/19 08:54:30;;;;;;;9.85;4.30;;;;;;;16.65;64.74;101105.88;6205165;23;20087;-86
2023/03/19 08:56:56;;;;;;;12.27;4.10;;;;;;;16.68;63.34;101132.56;6179371;23;20040;-86
2023/03/19 08:59:21;;;;;;;10.23;4.53;;;;;;;16.06;65.91;101131.63;6205002;23;20001;-87
2023/03/19 09:01:51;;;;;;;11.52;4.25;;;;;;;16.03;66.47;101118.38;6204381;23;20004;-86
2023/03/19 09:04:17;;;;;;;10.90;4.30;;;;;;;16.08;65.52;101135.03;6202713;23;20012;-86
2023/03/19 09:06:43;;;;;;;9.45;4.25;;;;;;;16.92;63.78;101137.13;6177038;23;20004;-87
2023/03/19 09:09:09;;;;;;;9.27;4.15;;;;;;;17.61;61.06;101142.78;6204457;23;20000;-88
2023/03/19 09:11:34;;;;;;;9.52;4.30;;;;;;;18.33;58.55;101135.41;6204080;23;20001;-87
2023/03/19 09:14:00;;;;;;;13.05;4.80;;;;;;;19.06;56.50;101141.28;6178851;23;20293;-87
2023/03/19 09:16:25;;;;;;;12.52;4.93;;;;;;;18.89;55.06;101139.97;6179278;23;20021;-87
2023/03/19 09:18:50;;;;;;;8.20;4.57;;;;;;;18.23;57.02;101152.44;6202214;23;20333;-86
2023/03/19 09:21:16;;;;;;;10.38;4.68;;;;;;;17.55;58.02;101152.16;6203669;23;20031;-87
2023/03/19 09:23:42;;;;;;;12.80;5.45;;;;;;;16.95;59.71;101165.63;6203408;23;20042;-86
2023/03/19 09:26:07;;;;;;;12.15;5.57;;;;;;;17.45;59.84;101161.06;6205310;23;20007;-85
2023/03/19 09:28:33;;;;;;;10.88;5.57;;;;;;;17.48;58.41;101171.59;6205040;23;20011;-86
2023/03/19 09:30:59;;;;;;;10.32;5.88;;;;;;;16.82;60.66;101161.16;6205601;23;20020;-86
2023/03/19 09:33:24;;;;;;;10.55;5.50;;;;;;;16.53;62.07;101165.88;6204388;23;20004;-86
2023/03/19 09:35:52;;;;;;;13.27;6.05;;;;;;;17.02;61.76;101166.91;6205098;23;20107;-89
2023/03/19 09:38:18;;;;;;;12.30;5.97;;;;;;;16.93;61.61;101180.06;6204667;23;20087;-87
2023/03/19 09:40:47;;;;;;;10.73;5.47;;;;;;;17.87;59.54;101179.38;6204944;23;20027;-87
2023/03/19 09:43:44;;;;;;;10.70;5.57;;;;;;;19.21;58.41;101175.13;6206819;23;20044;-87
2023/03/19 09:46:17;;;;;;;8.85;4.88;;;;;;;20.66;51.54;101170.03;6207780;23;20020;-86
2023/03/19 09:49:06;;;;;;;10.95;4.50;;;;;;;21.72;50.33;101177.59;6207815;23;20001;-88
2023/03/19 09:51:43;;;;;;;11.57;5.60;;;;;;;22.88;47.06;101171.09;6206846;23;20005;-86
2023/03/19 09:54:26;;;;;;;10.88;4.78;;;;;;;23.68;46.84;101176.81;6206670;23;20004;-85
2023/03/19 09:56:52;;;;;;;10.13;4.67;;;;;;;23.12;43.09;101173.31;6206785;23;20005;-86
2023/03/19 09:59:21;;;;;;;8.93;4.25;;;;;;;22.87;43.66;101181.13;6208034;23;20716;-86
2023/03/19 10:01:56;;;;;;;10.40;5.18;;;;;;;23.43;43.88;101171.09;6206764;23;20011;-87
2023/03/19 10:04:39;;;;;;;9.63;4.50;;;;;;;24.45;44.35;101177.97;6180280;23;20008;-86
2023/03/19 10:07:34;;;;;;;10.30;4.10;;;;;;;25.56;41.23;101179.66;6188231;23;20286;-86
2023/03/19 10:10:07;;;;;;;7.50;3.53;;;;;;;24.73;38.92;101178.66;6230672;23;20475;-87
2023/03/19 10:12:51;;;;;;;12.70;4.45;;;;;;;25.46;40.75;101184.44;6225112;23;19996;-85
2023/03/19 10:15:27;;;;;;;9.70;3.40;;;;;;;26.16;39.45;101181.25;6228128;23;20001;-86
2023/03/19 10:18:03;;;;;;;7.28;3.65;;;;;;;26.86;36.25;101174.31;6230422;23;20477;-86
2023/03/19 10:20:38;;;;;;;8.68;3.58;;;;;;;27.38;34.63;101176.47;6229772;23;20008;-84
2023/03/19 10:23:27;;;;;;;9.88;3.78;;;;;;;25.63;38.83;101196.22;6228735;23;19996;-84
2023/03/19 10:25:56;;;;;;;9.02;3.47;;;;;;;23.86;37.77;101185.81;6221579;23;20011;-87
2023/03/19 10:28:22;;;;;;;6.55;3.72;;;;;;;22.99;40.46;101183.63;6219775;23;20019;-85
2023/03/19 10:31:11;;;;;;;7.93;4.03;;;;;;;24.79;41.15;101189.75;6215997;23;20005;-87
2023/03/19 10:34:21;;;;;;;8.95;4.00;;;;;;;26.97;38.23;101182.97;6213618;23;20047;-86
2023/03/19 10:36:47;;;;;;;9.13;3.35;;;;;;;27.91;32.33;101191.19;6180615;23;20013;-87
2023/03/19 10:39:15;;;;;;;6.82;3.30;;;;;;;27.66;32.76;101188.59;6212091;23;20032;-86
2023/03/19 10:41:52;;;;;;;10.70;3.80;;;;;;;26.87;34.47;101193.25;6210087;23;20003;-89
2023/03/19 10:44:32;;;;;;;6.78;3.03;;;;;;;25.03;36.95;101186.28;6210589;23;20388;-88
2023/03/19 10:46:58;;;;;;;9.85;3.40;;;;;;;24.55;37.28;101200.50;6184152;23;20005;-87
2023/03/19 10:49:24;;;;;;;6.68;2.65;;;;;;;25.65;36.38;101187.84;6181980;23;20036;-85
2023/03/19 10:51:50;;;;;;;8.10;2.70;;;;;;;27.13;32.64;101184.84;6207549;23;20416;-87
2023/03/19 10:54:21;;;;;;;7.07;3.10;;;;;;;28.33;31.54;101184.31;6207861;23;20087;-86
2023/03/19 10:56:53;;;;;;;6.72;2.20;;;;;;;29.06;29.28;101191.78;6208113;23;20005;-87
2023/03/19 10:59:32;;;;;;;6.70;2.20;;;;;;;28.46;29.57;101201.84;6209945;23;20111;-86
2023/03/19 11:02:01;;;;;;;7.30;2.92;;;;;;;25.55;32.75;101213.41;6207363;23;20051;-87
2023/03/19 11:04:28;;;;;;;8.02;2.38;;;;;;;26.20;33.40;101209.91;6208617;23;20004;-86
2023/03/19 11:07:00;;;;;;;7.13;2.35;;;;;;;24.89;33.76;101203.25;6208010;23;20004;-88
2023/03/19 11:09:34;;;;;;;5.68;2.25;;;;;;;25.77;34.57;101205.63;6181313;23;20047;-87
2023/03/19 11:12:06;;;;;;;8.52;2.40;;;;;;;25.60;34.75;101212.88;6207474;23;20087;-86
2023/03/19 11:14:42;;;;;;;6.30;2.35;;;;;;;25.14;35.50;101209.69;6206181;23;20070;-87
2023/03/19 11:17:13;;;;;;;6.05;1.95;;;;;;;22.62;37.51;101208.91;6206278;23;20007;-86
2023/03/19 11:19:44;;;;;;;5.45;2.15;;;;;;;22.86;39.32;101200.25;6179191;23;20005;-86